createdAt,value
2022-10-05T00:01:46.300Z,100.00
2022-10-05T00:04:22.629Z,100.00
2022-10-05T00:07:09.342Z,100.00
2022-10-05T00:09:35.822Z,100.00
2022-10-05T00:12:20.574Z,100.00
2022-10-05T00:14:51.235Z,100.00
2022-10-05T00:17:20.129Z,100.00
2022-10-05T00:19:54.017Z,100.00
2022-10-05T00:22:31.160Z,100.00
2022-10-05T00:25:02.139Z,100.00
2022-10-05T00:27:33.654Z,100.00
2022-10-05T00:30:13.461Z,100.00
2022-10-05T00:32:39.976Z,100.00
2022-10-05T00:35:07.021Z,100.00
2022-10-05T00:37:33.849Z,100.00
2022-10-05T00:40:00.872Z,100.00
2022-10-05T00:42:33.685Z,100.00
2022-10-05T00:45:03.355Z,100.00
2022-10-05T00:47:45.875Z,100.00
2022-10-05T00:50:28.667Z,100.00
2022-10-05T00:53:11.788Z,100.00
2022-10-05T00:56:09.756Z,100.00
2022-10-05T00:58:54.503Z,100.00
2022-10-05T01:01:31.332Z,100.00
2022-10-05T01:04:20.422Z,100.00
2022-10-05T01:07:20.832Z,100.00
2022-10-05T01:10:08.319Z,100.00
2022-10-05T01:12:45.588Z,100.00
2022-10-05T01:15:51.589Z,100.00
2022-10-05T01:18:25.616Z,100.00
2022-10-05T01:21:14.361Z,100.00
2022-10-05T01:24:17.032Z,100.00
2022-10-05T01:27:37.171Z,100.00
2022-10-05T01:30:12.522Z,100.00
2022-10-05T01:32:59.173Z,100.00
2022-10-05T01:35:39.925Z,100.00
2022-10-05T01:38:24.308Z,100.00
2022-10-05T01:40:59.148Z,100.00
2022-10-05T01:43:41.716Z,100.00
2022-10-05T01:46:28.633Z,100.00
2022-10-05T01:48:58.887Z,100.00
2022-10-05T01:52:03.424Z,100.00
2022-10-05T01:54:55.080Z,100.00
2022-10-05T01:57:27.550Z,100.00
2022-10-05T02:00:09.224Z,100.00
2022-10-05T02:02:48.364Z,100.00
2022-10-05T02:05:26.508Z,100.00
2022-10-05T02:07:58.844Z,100.00
2022-10-05T02:10:43.582Z,100.00
2022-10-05T02:13:15.610Z,100.00
2022-10-05T02:15:46.125Z,100.00
2022-10-05T02:18:30.357Z,100.00
2022-10-05T02:21:03.045Z,100.00
2022-10-05T02:23:34.605Z,100.00
2022-10-05T02:26:02.569Z,100.00
2022-10-05T02:28:43.105Z,100.00
2022-10-05T02:31:14.370Z,100.00
2022-10-05T02:33:40.972Z,100.00
2022-10-05T02:36:29.639Z,100.00
2022-10-05T02:39:06.313Z,100.00
2022-10-05T02:41:41.881Z,100.00
2022-10-05T02:44:45.668Z,100.00
2022-10-05T02:47:41.304Z,100.00
2022-10-05T02:50:27.153Z,100.00
2022-10-05T02:53:07.612Z,100.00
2022-10-05T02:55:50.781Z,100.00
2022-10-05T02:58:24.955Z,100.00
2022-10-05T03:01:17.765Z,100.00
2022-10-05T03:04:12.702Z,100.00
2022-10-05T03:06:58.730Z,100.00
2022-10-05T03:09:31.590Z,100.00
2022-10-05T03:12:13.888Z,100.00
2022-10-05T03:14:57.678Z,100.00
2022-10-05T03:17:40.815Z,100.00
2022-10-05T03:20:38.376Z,100.00
2022-10-05T03:23:13.960Z,100.00
2022-10-05T03:25:52.852Z,100.00
2022-10-05T03:28:25.253Z,100.00
2022-10-05T03:31:06.258Z,100.00
2022-10-05T03:33:59.150Z,100.00
2022-10-05T03:36:57.785Z,100.00
2022-10-05T03:39:41.973Z,100.00
2022-10-05T03:42:20.286Z,100.00
2022-10-05T03:44:59.377Z,100.00
2022-10-05T03:47:57.713Z,100.00
2022-10-05T03:50:47.584Z,100.00
2022-10-05T03:53:23.502Z,100.00
2022-10-05T03:56:02.058Z,100.00
2022-10-05T03:58:56.193Z,100.00
2022-10-05T04:01:30.547Z,100.00
2022-10-05T04:04:05.413Z,100.00
2022-10-05T04:06:42.022Z,100.00
2022-10-05T04:09:16.990Z,100.00
2022-10-05T04:11:57.612Z,100.00
2022-10-05T04:14:38.782Z,100.00
2022-10-05T04:17:12.292Z,100.00
2022-10-05T04:19:45.474Z,100.00
2022-10-05T04:22:23.405Z,100.00
2022-10-05T04:25:06.324Z,100.00
2022-10-05T04:27:47.103Z,100.00
2022-10-05T04:30:17.704Z,100.00
2022-10-05T04:32:53.561Z,100.00
2022-10-05T04:35:25.832Z,100.00
2022-10-05T04:38:46.444Z,100.00
2022-10-05T04:41:30.534Z,100.00
2022-10-05T04:44:27.930Z,100.00
2022-10-05T04:47:22.636Z,100.00
2022-10-05T04:50:07.041Z,100.00
2022-10-05T04:53:02.723Z,100.00
2022-10-05T04:55:51.985Z,100.00
2022-10-05T04:58:18.610Z,100.00
2022-10-05T05:00:51.582Z,100.00
2022-10-05T05:03:34.870Z,100.00
2022-10-05T05:06:17.198Z,100.00
2022-10-05T05:08:53.180Z,100.00
2022-10-05T05:11:34.332Z,100.00
2022-10-05T05:14:38.204Z,100.00
2022-10-05T05:17:31.008Z,100.00
2022-10-05T05:20:11.560Z,100.00
2022-10-05T05:22:51.010Z,100.00
2022-10-05T05:25:39.929Z,100.00
2022-10-05T05:28:41.071Z,100.00
2022-10-05T05:31:20.130Z,100.00
2022-10-05T05:34:07.196Z,100.00
2022-10-05T05:36:48.826Z,100.00
2022-10-05T05:39:33.810Z,100.00
2022-10-05T05:42:22.648Z,100.00
2022-10-05T05:44:52.711Z,100.00
2022-10-05T05:47:23.363Z,100.00
2022-10-05T05:50:02.890Z,100.00
2022-10-05T05:52:53.638Z,100.00
2022-10-05T05:55:34.741Z,100.00
2022-10-05T05:58:25.152Z,100.00
2022-10-05T06:01:01.367Z,100.00
2022-10-05T06:03:39.843Z,100.00
2022-10-05T06:06:32.074Z,100.00
2022-10-05T06:09:03.485Z,100.00
2022-10-05T06:12:04.041Z,100.00
2022-10-05T06:14:49.880Z,100.00
2022-10-05T06:17:26.836Z,100.00
2022-10-05T06:20:02.507Z,100.00
2022-10-05T06:22:45.526Z,100.00
2022-10-05T06:25:13.489Z,100.00
2022-10-05T06:28:16.196Z,100.00
2022-10-05T06:31:03.889Z,100.00
2022-10-05T06:33:44.053Z,100.00
2022-10-05T06:36:48.910Z,100.00
2022-10-05T06:40:05.668Z,100.00
2022-10-05T06:42:53.275Z,100.00
2022-10-05T06:45:49.987Z,100.00
2022-10-05T06:49:11.091Z,100.00
2022-10-05T06:51:59.328Z,100.00
2022-10-05T06:55:20.827Z,100.00
2022-10-05T06:58:06.141Z,100.00
2022-10-05T07:00:44.028Z,100.00
2022-10-05T07:03:20.750Z,100.00
2022-10-05T07:06:04.522Z,100.00
2022-10-05T07:08:37.409Z,100.00
2022-10-05T07:11:07.186Z,100.00
2022-10-05T07:14:12.789Z,100.00
2022-10-05T07:16:52.246Z,100.00
2022-10-05T07:19:37.024Z,100.00
2022-10-05T07:22:36.984Z,100.00
2022-10-05T07:25:19.096Z,100.00
2022-10-05T07:27:58.790Z,100.00
2022-10-05T07:30:25.530Z,100.00
2022-10-05T07:33:00.025Z,100.00
2022-10-05T07:36:04.725Z,100.00
2022-10-05T07:38:45.584Z,100.00
2022-10-05T07:41:40.228Z,100.00
2022-10-05T07:44:23.377Z,100.00
2022-10-05T07:46:51.117Z,100.00
2022-10-05T07:49:36.478Z,100.00
2022-10-05T07:52:12.374Z,96.14
2022-10-05T07:54:52.561Z,95.04
2022-10-05T07:58:23.059Z,89.98
2022-10-05T08:01:16.948Z,88.00
2022-10-05T08:03:56.538Z,84.09
2022-10-05T08:06:40.374Z,87.19
2022-10-05T08:09:31.309Z,88.74
2022-10-05T08:12:02.465Z,85.50
2022-10-05T08:14:42.315Z,74.36
2022-10-05T08:17:44.149Z,70.71
2022-10-05T08:20:29.632Z,67.08
2022-10-05T08:23:33.808Z,59.99
2022-10-05T08:26:15.116Z,65.87
2022-10-05T08:28:53.216Z,67.20
2022-10-05T08:31:31.914Z,62.05
2022-10-05T08:34:22.134Z,59.52
2022-10-05T08:37:15.968Z,61.58
2022-10-05T08:40:18.743Z,53.88
2022-10-05T08:43:22.678Z,52.33
2022-10-05T08:46:03.001Z,51.84
2022-10-05T08:48:56.215Z,49.78
2022-10-05T08:52:22.534Z,48.66
2022-10-05T08:55:27.634Z,55.41
2022-10-05T08:58:48.460Z,53.18
2022-10-05T09:01:15.208Z,52.45
2022-10-05T09:03:53.853Z,49.90
2022-10-05T09:06:46.782Z,49.44
2022-10-05T09:09:16.167Z,49.55
2022-10-05T09:12:39.133Z,48.22
2022-10-05T09:15:30.082Z,45.21
2022-10-05T09:18:30.286Z,45.19
2022-10-05T09:21:26.177Z,46.10
2022-10-05T09:24:15.650Z,47.23
2022-10-05T09:27:07.657Z,44.05
2022-10-05T09:29:48.418Z,43.92
2022-10-05T09:32:52.037Z,43.50
2022-10-05T09:35:43.193Z,43.52
2022-10-05T09:38:57.250Z,41.01
2022-10-05T09:42:09.929Z,41.39
2022-10-05T09:45:28.692Z,41.35
2022-10-05T09:48:08.497Z,42.19
2022-10-05T09:50:38.012Z,39.87
2022-10-05T09:53:40.425Z,43.31
2022-10-05T09:56:55.108Z,39.51
2022-10-05T09:59:51.854Z,43.92
2022-10-05T10:02:42.053Z,39.28
2022-10-05T10:05:24.643Z,37.41
2022-10-05T10:08:05.622Z,38.55
2022-10-05T10:10:57.199Z,37.67
2022-10-05T10:14:04.344Z,38.53
2022-10-05T10:16:49.293Z,37.32
2022-10-05T10:19:44.200Z,37.94
2022-10-05T10:22:46.093Z,37.99
2022-10-05T10:25:39.769Z,37.36
2022-10-05T10:28:43.349Z,35.85
2022-10-05T10:31:28.634Z,36.65
2022-10-05T10:34:24.289Z,35.58
2022-10-05T10:37:11.157Z,36.34
2022-10-05T10:40:20.377Z,35.05
2022-10-05T10:42:56.235Z,35.43
2022-10-05T10:45:48.285Z,36.26
2022-10-05T10:48:30.042Z,35.48
2022-10-05T10:51:33.728Z,35.20
2022-10-05T10:54:14.357Z,35.40
2022-10-05T10:56:55.230Z,34.59
2022-10-05T10:59:53.843Z,35.26
2022-10-05T11:02:29.269Z,34.85
2022-10-05T11:05:08.106Z,34.59
2022-10-05T11:07:52.766Z,34.55
2022-10-05T11:10:26.015Z,34.31
2022-10-05T11:13:11.434Z,34.92
2022-10-05T11:16:01.293Z,33.92
2022-10-05T11:19:13.764Z,34.06
2022-10-05T11:22:13.334Z,34.79
2022-10-05T11:25:33.533Z,34.96
2022-10-05T11:28:49.727Z,34.78
2022-10-05T11:32:04.000Z,35.00
2022-10-05T11:35:03.334Z,35.00
2022-10-05T11:37:47.045Z,35.48
2022-10-05T11:40:43.165Z,34.84
2022-10-05T11:43:21.753Z,35.00
2022-10-05T11:45:59.661Z,34.78
2022-10-05T11:48:33.891Z,35.32
2022-10-05T11:51:26.457Z,33.82
2022-10-05T11:54:21.539Z,34.05
2022-10-05T11:57:13.589Z,33.67
2022-10-05T11:59:50.337Z,33.62
2022-10-05T12:02:45.876Z,33.52
2022-10-05T12:05:32.408Z,32.72
2022-10-05T12:08:17.764Z,34.39
2022-10-05T12:11:08.532Z,32.60
2022-10-05T12:14:13.565Z,34.03
2022-10-05T12:16:49.458Z,33.37
2022-10-05T12:19:27.208Z,33.10
2022-10-05T12:22:03.968Z,33.17
2022-10-05T12:24:36.412Z,34.57
2022-10-05T12:27:09.462Z,34.24
2022-10-05T12:29:47.885Z,34.34
2022-10-05T12:32:24.466Z,33.98
2022-10-05T12:35:14.590Z,33.13
2022-10-05T12:37:54.900Z,34.39
2022-10-05T12:40:39.690Z,34.39
2022-10-05T12:43:12.383Z,35.30
2022-10-05T12:45:53.173Z,34.05
2022-10-05T12:48:40.024Z,34.03
2022-10-05T12:51:16.886Z,35.84
2022-10-05T12:54:06.713Z,35.58
2022-10-05T12:56:54.630Z,36.30
2022-10-05T12:59:37.764Z,35.02
2022-10-05T13:02:27.378Z,35.12
2022-10-05T13:05:04.367Z,35.68
2022-10-05T13:07:46.305Z,36.11
2022-10-05T13:10:31.005Z,36.31
2022-10-05T13:13:20.505Z,37.65
2022-10-05T13:16:08.703Z,38.50
2022-10-05T13:18:54.311Z,38.37
2022-10-05T13:21:33.555Z,38.96
2022-10-05T13:24:14.204Z,39.40
2022-10-05T13:26:46.153Z,39.65
2022-10-05T13:29:28.124Z,39.50
2022-10-05T13:32:00.161Z,40.67
2022-10-05T13:34:26.572Z,40.21
2022-10-05T13:37:09.196Z,40.68
2022-10-05T13:39:51.169Z,40.75
2022-10-05T13:42:21.450Z,40.82
2022-10-05T13:44:56.502Z,41.29
2022-10-05T13:47:34.486Z,41.47
2022-10-05T13:50:16.868Z,42.03
2022-10-05T13:52:49.478Z,41.82
2022-10-05T13:55:47.189Z,41.78
2022-10-05T13:58:28.473Z,42.11
2022-10-05T14:00:58.173Z,41.65
2022-10-05T14:03:29.556Z,42.10
2022-10-05T14:06:01.473Z,41.67
2022-10-05T14:08:32.381Z,41.66
2022-10-05T14:10:59.534Z,41.69
2022-10-05T14:13:33.624Z,42.06
2022-10-05T14:16:19.110Z,41.54
2022-10-05T14:19:05.841Z,42.69
2022-10-05T14:21:46.349Z,43.26
2022-10-05T14:24:46.379Z,42.95
2022-10-05T14:27:24.838Z,42.59
2022-10-05T14:30:19.172Z,43.18
2022-10-05T14:33:03.822Z,42.80
2022-10-05T14:35:44.844Z,43.08
2022-10-05T14:38:17.353Z,42.80
2022-10-05T14:40:43.918Z,42.61
2022-10-05T14:43:20.341Z,43.00
2022-10-05T14:45:55.179Z,43.37
2022-10-05T14:48:22.377Z,43.65
2022-10-05T14:51:02.174Z,45.00
2022-10-05T14:53:41.686Z,43.75
2022-10-05T14:56:21.894Z,43.05
2022-10-05T14:59:06.928Z,43.57
2022-10-05T15:01:36.567Z,43.40
2022-10-05T15:04:23.134Z,43.95
2022-10-05T15:07:21.433Z,43.73
2022-10-05T15:10:11.630Z,45.06
2022-10-05T15:12:43.673Z,44.43
2022-10-05T15:15:32.673Z,44.16
2022-10-05T15:18:12.112Z,46.37
2022-10-05T15:21:00.469Z,45.30
2022-10-05T15:23:40.667Z,45.60
2022-10-05T15:26:36.248Z,45.05
2022-10-05T15:29:30.493Z,45.09
2022-10-05T15:32:14.538Z,47.39
2022-10-05T15:34:53.906Z,49.84
2022-10-05T15:37:49.963Z,49.97
2022-10-05T15:40:23.173Z,51.90
2022-10-05T15:42:53.308Z,53.25
2022-10-05T15:45:42.868Z,52.84
2022-10-05T15:48:25.297Z,54.28
2022-10-05T15:51:06.981Z,54.61
2022-10-05T15:53:37.567Z,55.27
2022-10-05T15:56:14.249Z,55.99
2022-10-05T15:58:53.041Z,56.12
2022-10-05T16:01:47.160Z,56.64
2022-10-05T16:04:41.307Z,57.63
2022-10-05T16:07:35.262Z,57.78
2022-10-05T16:10:23.334Z,56.92
2022-10-05T16:13:05.120Z,58.02
2022-10-05T16:15:41.318Z,57.47
2022-10-05T16:18:43.148Z,57.84
2022-10-05T16:21:22.356Z,58.04
2022-10-05T16:24:09.213Z,59.35
2022-10-05T16:26:50.989Z,58.94
2022-10-05T16:29:47.276Z,60.29
2022-10-05T16:32:21.933Z,60.74
2022-10-05T16:34:58.354Z,61.58
2022-10-05T16:37:39.078Z,62.01
2022-10-05T16:40:22.720Z,64.00
2022-10-05T16:42:56.907Z,68.75
2022-10-05T16:45:26.654Z,72.29
2022-10-05T16:48:07.986Z,72.85
2022-10-05T16:51:19.513Z,75.26
2022-10-05T16:54:01.908Z,75.32
2022-10-05T16:56:37.313Z,77.55
2022-10-05T16:59:06.552Z,77.58
2022-10-05T17:01:33.192Z,80.45
2022-10-05T17:04:24.222Z,83.46
2022-10-05T17:07:04.833Z,83.54
2022-10-05T17:10:20.024Z,83.41
2022-10-05T17:13:25.206Z,84.92
2022-10-05T17:16:14.834Z,85.15
2022-10-05T17:19:19.496Z,84.64
2022-10-05T17:22:00.671Z,84.99
2022-10-05T17:24:36.141Z,86.39
2022-10-05T17:27:35.553Z,88.21
2022-10-05T17:30:22.824Z,89.85
2022-10-05T17:33:04.484Z,89.65
2022-10-05T17:35:51.789Z,89.11
2022-10-05T17:38:26.624Z,87.81
2022-10-05T17:41:40.353Z,88.98
2022-10-05T17:44:16.227Z,89.78
2022-10-05T17:46:45.876Z,90.58
2022-10-05T17:50:15.142Z,90.13
2022-10-05T17:53:02.540Z,93.17
2022-10-05T17:56:01.480Z,94.41
2022-10-05T17:58:28.624Z,94.62
2022-10-05T18:01:13.207Z,94.30
2022-10-05T18:03:51.375Z,95.16
2022-10-05T18:06:31.915Z,96.92
2022-10-05T18:09:13.865Z,97.73
2022-10-05T18:11:43.008Z,97.37
2022-10-05T18:14:15.997Z,96.49
2022-10-05T18:17:13.264Z,96.87
2022-10-05T18:19:42.281Z,96.43
2022-10-05T18:22:17.837Z,94.72
2022-10-05T18:25:06.842Z,95.50
2022-10-05T18:28:00.848Z,95.73
2022-10-05T18:30:33.630Z,94.83
2022-10-05T18:33:07.616Z,97.28
2022-10-05T18:35:38.300Z,97.82
2022-10-05T18:38:20.589Z,99.70
2022-10-05T18:41:02.527Z,100.00
2022-10-05T18:43:58.621Z,100.00
2022-10-05T18:46:56.200Z,100.00
2022-10-05T18:49:34.808Z,100.00
2022-10-05T18:52:36.689Z,100.00
2022-10-05T18:55:18.497Z,100.00
2022-10-05T18:57:57.743Z,100.00
2022-10-05T19:00:26.650Z,100.00
2022-10-05T19:03:25.389Z,100.00
2022-10-05T19:06:12.884Z,100.00
2022-10-05T19:08:59.257Z,100.00
2022-10-05T19:11:30.171Z,100.00
2022-10-05T19:14:05.599Z,100.00
2022-10-05T19:17:08.390Z,100.00
2022-10-05T19:20:08.824Z,100.00
2022-10-05T19:22:59.776Z,100.00
2022-10-05T19:25:29.325Z,100.00
2022-10-05T19:28:02.846Z,100.00
2022-10-05T19:30:58.702Z,100.00
2022-10-05T19:33:31.611Z,100.00
2022-10-05T19:36:25.852Z,100.00
2022-10-05T19:39:10.502Z,100.00
2022-10-05T19:41:40.047Z,100.00
2022-10-05T19:44:25.486Z,100.00
2022-10-05T19:47:00.655Z,100.00
2022-10-05T19:49:44.530Z,100.00
2022-10-05T19:52:20.957Z,100.00
2022-10-05T19:55:01.656Z,100.00
2022-10-05T19:57:28.758Z,100.00
2022-10-05T19:59:58.396Z,100.00
2022-10-05T20:02:28.123Z,100.00
2022-10-05T20:05:06.610Z,100.00
2022-10-05T20:07:34.364Z,100.00
2022-10-05T20:10:25.341Z,100.00
2022-10-05T20:12:55.954Z,100.00
2022-10-05T20:15:44.946Z,100.00
2022-10-05T20:19:04.706Z,100.00
2022-10-05T20:21:38.788Z,100.00
2022-10-05T20:24:10.259Z,100.00
2022-10-05T20:27:06.641Z,100.00
2022-10-05T20:29:41.288Z,100.00
2022-10-05T20:32:12.104Z,100.00
2022-10-05T20:34:43.717Z,100.00
2022-10-05T20:37:17.563Z,100.00
2022-10-05T20:39:45.360Z,100.00
2022-10-05T20:42:12.377Z,100.00
2022-10-05T20:44:39.398Z,100.00
2022-10-05T20:47:09.502Z,100.00
2022-10-05T20:49:38.669Z,100.00
2022-10-05T20:52:10.196Z,100.00
2022-10-05T20:54:38.633Z,100.00
2022-10-05T20:57:06.137Z,100.00
2022-10-05T20:59:33.988Z,100.00
2022-10-05T21:02:01.564Z,100.00
2022-10-05T21:04:40.927Z,100.00
2022-10-05T21:07:08.140Z,100.00
2022-10-05T21:09:34.688Z,100.00
2022-10-05T21:12:01.194Z,100.00
2022-10-05T21:14:30.546Z,100.00
2022-10-05T21:16:57.019Z,100.00
2022-10-05T21:19:23.431Z,100.00
2022-10-05T21:21:49.926Z,100.00
2022-10-05T21:24:17.264Z,100.00
2022-10-05T21:26:44.801Z,100.00
2022-10-05T21:29:12.893Z,100.00
2022-10-05T21:31:40.224Z,100.00
2022-10-05T21:34:07.024Z,100.00
2022-10-05T21:36:33.811Z,100.00
2022-10-05T21:39:00.735Z,100.00
2022-10-05T21:41:27.200Z,100.00
2022-10-05T21:43:53.792Z,100.00
2022-10-05T21:46:21.449Z,100.00
2022-10-05T21:48:48.430Z,100.00
2022-10-05T21:51:18.758Z,100.00
2022-10-05T21:53:53.325Z,100.00
2022-10-05T21:56:22.455Z,100.00
2022-10-05T21:58:50.666Z,100.00
2022-10-05T22:01:22.469Z,100.00
2022-10-05T22:03:49.162Z,100.00
2022-10-05T22:06:15.596Z,100.00
2022-10-05T22:08:41.963Z,100.00
2022-10-05T22:11:11.994Z,100.00
2022-10-05T22:13:49.855Z,100.00
2022-10-05T22:16:18.860Z,100.00
2022-10-05T22:18:45.607Z,100.00
2022-10-05T22:21:13.793Z,100.00
2022-10-05T22:23:41.766Z,100.00
2022-10-05T22:26:10.796Z,100.00
2022-10-05T22:28:39.494Z,100.00
2022-10-05T22:31:09.433Z,100.00
2022-10-05T22:33:36.929Z,100.00
2022-10-05T22:36:06.108Z,100.00
2022-10-05T22:38:32.897Z,100.00
2022-10-05T22:40:59.358Z,100.00
2022-10-05T22:43:27.712Z,100.00
2022-10-05T22:45:54.699Z,100.00
2022-10-05T22:48:21.549Z,100.00
2022-10-05T22:50:48.798Z,100.00
2022-10-05T22:53:15.271Z,100.00
2022-10-05T22:55:41.669Z,100.00
2022-10-05T22:58:08.060Z,100.00
2022-10-05T23:00:56.556Z,100.00
2022-10-05T23:03:20.850Z,100.00
2022-10-05T23:05:47.248Z,100.00
2022-10-05T23:08:13.628Z,100.00
2022-10-05T23:10:40.044Z,100.00
2022-10-05T23:13:08.223Z,100.00
2022-10-05T23:15:34.628Z,100.00
2022-10-05T23:18:01.096Z,100.00
2022-10-05T23:20:27.438Z,100.00
2022-10-05T23:22:53.888Z,100.00
2022-10-05T23:25:22.088Z,100.00
2022-10-05T23:27:48.529Z,100.00
2022-10-05T23:30:14.964Z,100.00
2022-10-05T23:32:42.020Z,100.00
2022-10-05T23:35:10.329Z,100.00
2022-10-05T23:37:41.342Z,100.00
2022-10-05T23:40:10.391Z,100.00
2022-10-05T23:42:36.800Z,100.00
2022-10-05T23:45:03.846Z,100.00
2022-10-05T23:47:30.492Z,100.00
2022-10-05T23:49:56.977Z,100.00
2022-10-05T23:52:23.481Z,100.00
2022-10-05T23:54:49.858Z,100.00
2022-10-05T23:57:19.766Z,100.00
2022-10-05T23:59:46.362Z,100.00
